sensor_id;sensor_type;location;lat;lon;timestamp;pressure;altitude;pressure_sealevel;temperature;humidity
54262;BME280;40174;52.364;6.452;2023-03-21T00:02:02;101346.78;;;8.45;100.00
54262;BME280;40174;52.364;6.452;2023-03-21T00:04:29;101358.06;;;8.47;100.00
54262;BME280;40174;52.364;6.452;2023-03-21T00:06:56;101355.34;;;8.48;100.00
54262;BME280;40174;52.364;6.452;2023-03-21T00:09:24;101356.09;;;8.50;100.00
54262;BME280;40174;52.364;6.452;2023-03-21T00:11:51;101350.91;;;8.49;100.00
54262;BME280;40174;52.364;6.452;2023-03-21T00:14:18;101349.13;;;8.49;100.00
54262;BME280;40174;52.364;6.452;2023-03-21T00:16:45;101345.56;;;8.50;100.00
54262;BME280;40174;52.364;6.452;2023-03-21T00:19:15;101350.91;;;8.49;100.00
54262;BME280;40174;52.364;6.452;2023-03-21T00:21:41;101342.72;;;8.53;100.00
54262;BME280;40174;52.364;6.452;2023-03-21T00:24:10;101347.06;;;8.55;100.00
54262;BME280;40174;52.364;6.452;2023-03-21T00:26:37;101342.72;;;8.53;100.00
54262;BME280;40174;52.364;6.452;2023-03-21T00:29:04;101336.59;;;8.53;100.00
54262;BME280;40174;52.364;6.452;2023-03-21T00:31:31;101331.25;;;8.55;100.00
54262;BME280;40174;52.364;6.452;2023-03-21T00:33:58;101334.81;;;8.53;100.00
54262;BME280;40174;52.364;6.452;2023-03-21T00:36:25;101335.84;;;8.51;100.00
54262;BME280;40174;52.364;6.452;2023-03-21T00:38:52;101328.63;;;8.55;100.00
54262;BME280;40174;52.364;6.452;2023-03-21T00:41:19;101333.88;;;8.55;100.00
54262;BME280;40174;52.364;6.452;2023-03-21T00:43:47;101328.50;;;8.56;100.00
54262;BME280;40174;52.364;6.452;2023-03-21T00:46:13;101320.50;;;8.58;100.00
54262;BME280;40174;52.364;6.452;2023-03-21T00:48:40;101331.13;;;8.56;100.00
54262;BME280;40174;52.364;6.452;2023-03-21T00:51:11;101328.50;;;8.56;100.00
54262;BME280;40174;52.364;6.452;2023-03-21T00:53:40;101325.88;;;8.56;100.00
54262;BME280;40174;52.364;6.452;2023-03-21T00:56:07;101317.78;;;8.59;100.00
54262;BME280;40174;52.364;6.452;2023-03-21T00:58:34;101318.72;;;8.58;100.00
54262;BME280;40174;52.364;6.452;2023-03-21T01:01:03;101307.25;;;8.59;100.00
54262;BME280;40174;52.364;6.452;2023-03-21T01:03:32;101301.97;;;8.59;100.00
54262;BME280;40174;52.364;6.452;2023-03-21T01:06:10;101310.72;;;8.60;100.00
54262;BME280;40174;52.364;6.452;2023-03-21T01:08:39;101303.75;;;8.59;100.00
54262;BME280;40174;52.364;6.452;2023-03-21T01:11:08;101300.25;;;8.58;100.00
54262;BME280;40174;52.364;6.452;2023-03-21T01:13:35;101295.00;;;8.58;100.00
54262;BME280;40174;52.364;6.452;2023-03-21T01:16:05;101285.28;;;8.59;100.00
54262;BME280;40174;52.364;6.452;2023-03-21T01:18:33;101295.13;;;8.57;100.00
54262;BME280;40174;52.364;6.452;2023-03-21T01:21:00;101298.59;;;8.57;100.00
54262;BME280;40174;52.364;6.452;2023-03-21T01:23:28;101295.94;;;8.57;100.00
54262;BME280;40174;52.364;6.452;2023-03-21T01:25:55;101296.78;;;8.58;100.00
54262;BME280;40174;52.364;6.452;2023-03-21T01:28:25;101299.34;;;8.59;100.00
54262;BME280;40174;52.364;6.452;2023-03-21T01:30:52;101288.88;;;8.58;100.00
54262;BME280;40174;52.364;6.452;2023-03-21T01:33:21;101293.31;;;8.57;100.00
54262;BME280;40174;52.364;6.452;2023-03-21T01:35:48;101282.88;;;8.56;100.00
54262;BME280;40174;52.364;6.452;2023-03-21T01:38:14;101298.59;;;8.57;100.00
54262;BME280;40174;52.364;6.452;2023-03-21T01:40:44;101281.06;;;8.56;100.00
54262;BME280;40174;52.364;6.452;2023-03-21T01:43:26;101274.97;;;8.56;100.00
54262;BME280;40174;52.364;6.452;2023-03-21T01:46:31;101283.81;;;8.55;100.00
54262;BME280;40174;52.364;6.452;2023-03-21T01:49:29;101272.41;;;8.54;100.00
54262;BME280;40174;52.364;6.452;2023-03-21T01:52:20;101277.59;;;8.56;100.00
54262;BME280;40174;52.364;6.452;2023-03-21T01:54:50;101276.56;;;8.58;100.00
54262;BME280;40174;52.364;6.452;2023-03-21T01:57:22;101272.31;;;8.56;100.00
54262;BME280;40174;52.364;6.452;2023-03-21T01:59:58;101274.97;;;8.56;100.00
54262;BME280;40174;52.364;6.452;2023-03-21T02:02:45;101271.41;;;8.57;100.00
54262;BME280;40174;52.364;6.452;2023-03-21T02:05:42;101266.13;;;8.57;100.00
54262;BME280;40174;52.364;6.452;2023-03-21T02:08:11;101252.09;;;8.56;100.00
54262;BME280;40174;52.364;6.452;2023-03-21T02:10:39;101257.34;;;8.56;100.00
54262;BME280;40174;52.364;6.452;2023-03-21T02:13:10;101248.72;;;8.54;100.00
54262;BME280;40174;52.364;6.452;2023-03-21T02:15:41;101248.72;;;8.54;100.00
54262;BME280;40174;52.364;6.452;2023-03-21T02:18:38;101240.94;;;8.52;100.00
54262;BME280;40174;52.364;6.452;2023-03-21T02:24:17;101233.84;;;8.53;100.00
54262;BME280;40174;52.364;6.452;2023-03-21T02:26:56;101232.19;;;8.52;100.00
54262;BME280;40174;52.364;6.452;2023-03-21T02:29:46;101228.69;;;8.51;100.00
54262;BME280;40174;52.364;6.452;2023-03-21T02:32:25;101227.84;;;8.51;100.00
54262;BME280;40174;52.364;6.452;2023-03-21T02:35:24;101227.00;;;8.50;100.00
54262;BME280;40174;52.364;6.452;2023-03-21T02:37:58;101220.69;;;8.53;100.00
54262;BME280;40174;52.364;6.452;2023-03-21T02:40:32;101221.53;;;8.53;100.00
54262;BME280;40174;52.364;6.452;2023-03-21T02:43:04;101219.00;;;8.52;100.00
54262;BME280;40174;52.364;6.452;2023-03-21T02:45:38;101217.22;;;8.52;100.00
54262;BME280;40174;52.364;6.452;2023-03-21T02:48:09;101214.66;;;8.51;100.00
54262;BME280;40174;52.364;6.452;2023-03-21T02:50:41;101213.75;;;8.52;100.00
54262;BME280;40174;52.364;6.452;2023-03-21T02:53:13;101208.56;;;8.50;100.00
54262;BME280;40174;52.364;6.452;2023-03-21T02:55:42;101205.84;;;8.52;100.00
54262;BME280;40174;52.364;6.452;2023-03-21T02:58:12;101208.56;;;8.50;100.00
54262;BME280;40174;52.364;6.452;2023-03-21T03:00:46;101211.94;;;8.52;100.00
54262;BME280;40174;52.364;6.452;2023-03-21T03:03:22;101200.56;;;8.52;100.00
54262;BME280;40174;52.364;6.452;2023-03-21T03:05:51;101204.03;;;8.52;100.00
54262;BME280;40174;52.364;6.452;2023-03-21T03:08:26;101207.50;;;8.53;100.00
54262;BME280;40174;52.364;6.452;2023-03-21T03:11:05;101200.34;;;8.55;100.00
54262;BME280;40174;52.364;6.452;2023-03-21T03:13:45;101190.66;;;8.56;100.00
54262;BME280;40174;52.364;6.452;2023-03-21T03:16:26;101201.28;;;8.54;100.00
54262;BME280;40174;52.364;6.452;2023-03-21T03:18:59;101195.28;;;8.52;100.00
54262;BME280;40174;52.364;6.452;2023-03-21T03:21:29;101190.13;;;8.50;100.00
54262;BME280;40174;52.364;6.452;2023-03-21T03:24:02;101194.25;;;8.55;100.00
54262;BME280;40174;52.364;6.452;2023-03-21T03:26:34;101189.06;;;8.53;100.00
54262;BME280;40174;52.364;6.452;2023-03-21T03:29:05;101192.53;;;8.53;100.00
54262;BME280;40174;52.364;6.452;2023-03-21T03:31:37;101193.38;;;8.54;100.00
54262;BME280;40174;52.364;6.452;2023-03-21T03:34:08;101194.34;;;8.53;100.00
54262;BME280;40174;52.364;6.452;2023-03-21T03:36:41;101189.81;;;8.55;100.00
54262;BME280;40174;52.364;6.452;2023-03-21T03:39:14;101189.91;;;8.53;100.00
54262;BME280;40174;52.364;6.452;2023-03-21T03:41:49;101185.59;;;8.52;100.00
54262;BME280;40174;52.364;6.452;2023-03-21T03:44:17;101188.31;;;8.51;100.00
54262;BME280;40174;52.364;6.452;2023-03-21T03:46:55;101187.28;;;8.53;100.00
54262;BME280;40174;52.364;6.452;2023-03-21T03:49:24;101190.97;;;8.51;100.00
54262;BME280;40174;52.364;6.452;2023-03-21T03:51:57;101184.94;;;8.49;100.00
54262;BME280;40174;52.364;6.452;2023-03-21T03:54:36;101185.78;;;8.49;100.00
54262;BME280;40174;52.364;6.452;2023-03-21T03:57:04;101182.22;;;8.50;100.00
54262;BME280;40174;52.364;6.452;2023-03-21T07:35:34;101156.81;;;8.49;100.00
54262;BME280;40174;52.364;6.452;2023-03-21T07:38:02;101153.03;;;8.53;100.00
54262;BME280;40174;52.364;6.452;2023-03-21T07:40:28;101141.66;;;8.53;100.00
54262;BME280;40174;52.364;6.452;2023-03-21T07:42:55;101149.47;;;8.55;100.00
54262;BME280;40174;52.364;6.452;2023-03-21T07:45:29;101148.50;;;8.56;100.00
54262;BME280;40174;52.364;6.452;2023-03-21T07:47:56;101150.06;;;8.58;100.00
54262;BME280;40174;52.364;6.452;2023-03-21T07:50:23;101149.91;;;8.61;100.00
54262;BME280;40174;52.364;6.452;2023-03-21T07:52:51;101155.91;;;8.63;100.00
54262;BME280;40174;52.364;6.452;2023-03-21T07:55:18;101157.59;;;8.64;100.00
54262;BME280;40174;52.364;6.452;2023-03-21T07:57:45;101154.84;;;8.66;100.00
54262;BME280;40174;52.364;6.452;2023-03-21T08:00:17;101148.31;;;8.71;100.00
54262;BME280;40174;52.364;6.452;2023-03-21T08:02:48;101151.69;;;8.73;100.00
54262;BME280;40174;52.364;6.452;2023-03-21T08:05:19;101155.06;;;8.76;100.00
54262;BME280;40174;52.364;6.452;2023-03-21T08:07:46;101151.47;;;8.77;100.00
54262;BME280;40174;52.364;6.452;2023-03-21T08:10:14;101149.69;;;8.77;100.00
54262;BME280;40174;52.364;6.452;2023-03-21T08:12:41;101151.28;;;8.80;100.00
54262;BME280;40174;52.364;6.452;2023-03-21T08:15:09;101142.41;;;8.81;100.00
54262;BME280;40174;52.364;6.452;2023-03-21T08:17:36;101143.16;;;8.83;100.00
54262;BME280;40174;52.364;6.452;2023-03-21T08:20:05;101140.34;;;8.86;100.00
54262;BME280;40174;52.364;6.452;2023-03-21T08:22:33;101136.63;;;8.88;100.00
54262;BME280;40174;52.364;6.452;2023-03-21T08:25:01;101140.84;;;8.91;100.00
54262;BME280;40174;52.364;6.452;2023-03-21T08:27:30;101140.53;;;8.95;100.00
54262;BME280;40174;52.364;6.452;2023-03-21T08:35:22;101129.69;;;9.00;100.00
54262;BME280;40174;52.364;6.452;2023-03-21T08:37:48;101140.88;;;9.04;100.00
54262;BME280;40174;52.364;6.452;2023-03-21T08:40:17;101137.25;;;9.05;100.00
54262;BME280;40174;52.364;6.452;2023-03-21T08:42:45;101136.34;;;9.06;100.00
54262;BME280;40174;52.364;6.452;2023-03-21T08:45:13;101140.63;;;9.07;100.00
54262;BME280;40174;52.364;6.452;2023-03-21T08:47:40;101130.84;;;9.09;100.00
54262;BME280;40174;52.364;6.452;2023-03-21T08:50:09;101143.94;;;9.10;100.00
54262;BME280;40174;52.364;6.452;2023-03-21T08:52:37;101147.41;;;9.11;100.00
54262;BME280;40174;52.364;6.452;2023-03-21T08:55:04;101144.84;;;9.09;100.00
54262;BME280;40174;52.364;6.452;2023-03-21T08:57:31;101141.28;;;9.10;100.00
54262;BME280;40174;52.364;6.452;2023-03-21T08:59:59;101134.41;;;9.08;100.00
54262;BME280;40174;52.364;6.452;2023-03-21T09:02:25;101133.38;;;9.10;100.00
54262;BME280;40174;52.364;6.452;2023-03-21T09:04:52;101130.75;;;9.10;100.00
54262;BME280;40174;52.364;6.452;2023-03-21T09:07:19;101132.31;;;9.13;100.00
54262;BME280;40174;52.364;6.452;2023-03-21T09:09:46;101128.63;;;9.15;100.00
54262;BME280;40174;52.364;6.452;2023-03-21T09:12:16;101129.13;;;9.21;100.00
54262;BME280;40174;52.364;6.452;2023-03-21T09:14:43;101122.94;;;9.22;100.00
54262;BME280;40174;52.364;6.452;2023-03-21T09:17:11;101128.81;;;9.25;100.00
54262;BME280;40174;52.364;6.452;2023-03-21T09:19:37;101118.16;;;9.27;100.00
54262;BME280;40174;52.364;6.452;2023-03-21T09:22:04;101118.91;;;9.29;100.00
54262;BME280;40174;52.364;6.452;2023-03-21T09:24:38;101115.09;;;9.33;100.00
54262;BME280;40174;52.364;6.452;2023-03-21T09:27:05;101121.94;;;9.35;100.00
54262;BME280;40174;52.364;6.452;2023-03-21T09:29:33;101111.41;;;9.35;100.00
54262;BME280;40174;52.364;6.452;2023-03-21T09:32:00;101112.34;;;9.34;100.00
54262;BME280;40174;52.364;6.452;2023-03-21T09:34:29;101119.00;;;9.40;100.00
54262;BME280;40174;52.364;6.452;2023-03-21T09:36:56;101117.41;;;9.38;100.00
54262;BME280;40174;52.364;6.452;2023-03-21T09:39:23;101115.38;;;9.41;100.00
54262;BME280;40174;52.364;6.452;2023-03-21T09:42:09;101120.47;;;9.44;100.00
54262;BME280;40174;52.364;6.452;2023-03-21T09:44:50;101119.25;;;9.48;100.00
54262;BME280;40174;52.364;6.452;2023-03-21T09:47:20;101108.59;;;9.50;100.00
54262;BME280;40174;52.364;6.452;2023-03-21T09:49:54;101117.03;;;9.55;100.00
54262;BME280;40174;52.364;6.452;2023-03-21T09:52:27;101116.19;;;9.54;100.00
54262;BME280;40174;52.364;6.452;2023-03-21T09:54:56;101112.16;;;9.62;100.00
54262;BME280;40174;52.364;6.452;2023-03-21T09:57:29;101106.03;;;9.61;100.00
54262;BME280;40174;52.364;6.452;2023-03-21T09:59:59;101102.56;;;9.61;100.00
54262;BME280;40174;52.364;6.452;2023-03-21T10:02:38;101096.13;;;9.65;100.00
54262;BME280;40174;52.364;6.452;2023-03-21T10:05:14;101096.13;;;9.65;100.00
54262;BME280;40174;52.364;6.452;2023-03-21T10:07:50;101090.63;;;9.68;100.00
54262;BME280;40174;52.364;6.452;2023-03-21T10:10:21;101090.28;;;9.72;100.00
54262;BME280;40174;52.364;6.452;2023-03-21T10:12:49;101085.84;;;9.73;100.00
54262;BME280;40174;52.364;6.452;2023-03-21T10:15:19;101085.84;;;9.73;100.00
54262;BME280;40174;52.364;6.452;2023-03-21T10:17:51;101085.63;;;9.76;100.00
54262;BME280;40174;52.364;6.452;2023-03-21T10:20:21;101080.63;;;9.84;100.00
54262;BME280;40174;52.364;6.452;2023-03-21T10:22:50;101080.75;;;9.83;100.00
54262;BME280;40174;52.364;6.452;2023-03-21T10:25:19;101077.13;;;9.84;100.00
54262;BME280;40174;52.364;6.452;2023-03-21T10:27:48;101075.03;;;9.89;100.00
54262;BME280;40174;52.364;6.452;2023-03-21T10:30:25;101073.09;;;9.91;100.00
54262;BME280;40174;52.364;6.452;2023-03-21T10:32:55;101059.88;;;9.91;100.00
54262;BME280;40174;52.364;6.452;2023-03-21T10:35:24;101070.97;;;9.96;100.00
54262;BME280;40174;52.364;6.452;2023-03-21T10:37:51;101063.88;;;9.96;100.00
54262;BME280;40174;52.364;6.452;2023-03-21T10:40:18;101046.97;;;9.99;100.00
54262;BME280;40174;52.364;6.452;2023-03-21T10:42:45;101046.72;;;10.02;100.00
54262;BME280;40174;52.364;6.452;2023-03-21T10:45:16;101040.50;;;10.03;100.00
54262;BME280;40174;52.364;6.452;2023-03-21T10:47:47;101040.41;;;10.05;100.00
54262;BME280;40174;52.364;6.452;2023-03-21T10:50:16;101034.25;;;10.04;100.00
54262;BME280;40174;52.364;6.452;2023-03-21T10:52:54;101027.19;;;10.05;100.00
54262;BME280;40174;52.364;6.452;2023-03-21T10:55:27;101020.84;;;10.07;100.00
54262;BME280;40174;52.364;6.452;2023-03-21T10:57:58;101028.63;;;10.09;100.00
54262;BME280;40174;52.364;6.452;2023-03-21T11:00:29;101030.09;;;10.13;100.00
54262;BME280;40174;52.364;6.452;2023-03-21T11:03:00;101022.69;;;10.18;100.00
54262;BME280;40174;52.364;6.452;2023-03-21T11:05:33;101018.34;;;10.17;100.00
54262;BME280;40174;52.364;6.452;2023-03-21T11:08:04;101031.44;;;10.18;100.00
54262;BME280;40174;52.364;6.452;2023-03-21T11:10:33;101028.44;;;10.23;100.00
54262;BME280;40174;52.364;6.452;2023-03-21T11:13:04;101022.19;;;10.24;100.00
54262;BME280;40174;52.364;6.452;2023-03-21T11:15:40;101028.50;;;10.34;100.00
54262;BME280;40174;52.364;6.452;2023-03-21T11:18:17;101032.09;;;10.33;100.00
54262;BME280;40174;52.364;6.452;2023-03-21T11:20:49;101028.50;;;10.34;100.00
54262;BME280;40174;52.364;6.452;2023-03-21T11:23:18;101034.28;;;10.39;100.00
54262;BME280;40174;52.364;6.452;2023-03-21T11:25:47;101015.22;;;10.47;100.00
54262;BME280;40174;52.364;6.452;2023-03-21T11:28:16;101019.16;;;10.53;100.00
54262;BME280;40174;52.364;6.452;2023-03-21T11:30:54;101017.50;;;10.52;100.00
54262;BME280;40174;52.364;6.452;2023-03-21T11:33:25;101003.31;;;10.53;100.00
54262;BME280;40174;52.364;6.452;2023-03-21T11:36:00;100992.50;;;10.56;100.00
54262;BME280;40174;52.364;6.452;2023-03-21T11:38:32;100991.28;;;10.60;100.00
54262;BME280;40174;52.364;6.452;2023-03-21T11:41:01;100995.50;;;10.74;100.00
54262;BME280;40174;52.364;6.452;2023-03-21T11:43:30;100993.47;;;10.77;100.00
54262;BME280;40174;52.364;6.452;2023-03-21T11:45:59;100992.03;;;10.85;100.00
54262;BME280;40174;52.364;6.452;2023-03-21T11:48:32;100987.91;;;10.92;100.00
54262;BME280;40174;52.364;6.452;2023-03-21T11:51:03;100981.22;;;10.99;100.00
54262;BME280;40174;52.364;6.452;2023-03-21T11:53:41;100985.75;;;11.08;100.00
54262;BME280;40174;52.364;6.452;2023-03-21T11:56:32;100988.84;;;11.24;100.00
54262;BME280;40174;52.364;6.452;2023-03-21T11:59:13;100986.28;;;11.34;100.00
54262;BME280;40174;52.364;6.452;2023-03-21T12:01:56;100982.94;;;11.43;100.00
54262;BME280;40174;52.364;6.452;2023-03-21T12:04:37;100984.66;;;11.54;100.00
54262;BME280;40174;52.364;6.452;2023-03-21T12:07:15;100983.22;;;11.61;100.00
54262;BME280;40174;52.364;6.452;2023-03-21T12:09:52;100989.13;;;11.54;100.00
54262;BME280;40174;52.364;6.452;2023-03-21T12:12:31;100980.81;;;11.58;100.00
54262;BME280;40174;52.364;6.452;2023-03-21T12:15:02;100986.84;;;11.49;100.00
54262;BME280;40174;52.364;6.452;2023-03-21T12:17:47;100979.19;;;11.46;100.00
54262;BME280;40174;52.364;6.452;2023-03-21T12:20:24;100966.44;;;11.40;100.00
54262;BME280;40174;52.364;6.452;2023-03-21T12:23:02;100964.88;;;11.37;100.00
54262;BME280;40174;52.364;6.452;2023-03-21T12:25:39;100969.47;;;11.35;100.00
54262;BME280;40174;52.364;6.452;2023-03-21T12:28:15;100968.84;;;11.32;100.00
54262;BME280;40174;52.364;6.452;2023-03-21T12:30:52;100971.50;;;11.32;100.00
54262;BME280;40174;52.364;6.452;2023-03-21T12:33:35;100936.63;;;11.38;100.00
54262;BME280;40174;52.364;6.452;2023-03-21T12:36:13;100930.50;;;11.37;100.00
54262;BME280;40174;52.364;6.452;2023-03-21T12:38:52;100943.34;;;11.42;100.00
54262;BME280;40174;52.364;6.452;2023-03-21T12:41:24;100937.66;;;11.47;100.00
54262;BME280;40174;52.364;6.452;2023-03-21T12:43:57;100936.56;;;11.49;100.00
54262;BME280;40174;52.364;6.452;2023-03-21T12:46:29;100938.13;;;11.52;100.00
54262;BME280;40174;52.364;6.452;2023-03-21T12:49:00;100942.91;;;11.58;100.00
54262;BME280;40174;52.364;6.452;2023-03-21T12:51:30;100935.19;;;11.66;100.00
54262;BME280;40174;52.364;6.452;2023-03-21T12:54:03;100936.59;;;11.70;100.00
54262;BME280;40174;52.364;6.452;2023-03-21T12:56:37;100926.97;;;11.69;100.00
54262;BME280;40174;52.364;6.452;2023-03-21T12:59:13;100932.72;;;11.74;100.00
54262;BME280;40174;52.364;6.452;2023-03-21T13:01:44;100934.66;;;11.72;100.00
54262;BME280;40174;52.364;6.452;2023-03-21T13:04:30;100920.84;;;11.69;100.00
54262;BME280;40174;52.364;6.452;2023-03-21T13:07:02;100937.69;;;11.68;100.00
54262;BME280;40174;52.364;6.452;2023-03-21T13:09:34;100924.94;;;11.73;100.00
54262;BME280;40174;52.364;6.452;2023-03-21T13:12:12;100932.88;;;11.73;100.00
54262;BME280;40174;52.364;6.452;2023-03-21T13:14:50;100919.88;;;11.70;100.00
54262;BME280;40174;52.364;6.452;2023-03-21T13:17:24;100922.41;;;11.71;100.00
54262;BME280;40174;52.364;6.452;2023-03-21T13:19:56;100917.81;;;11.73;100.00
54262;BME280;40174;52.364;6.452;2023-03-21T13:22:26;100914.72;;;11.68;100.00
54262;BME280;40174;52.364;6.452;2023-03-21T13:24:58;100909.16;;;11.71;100.00
54262;BME280;40174;52.364;6.452;2023-03-21T13:27:28;100906.13;;;11.76;100.00
54262;BME280;40174;52.364;6.452;2023-03-21T13:30:00;100898.50;;;11.82;100.00
54262;BME280;40174;52.364;6.452;2023-03-21T13:32:32;100906.31;;;11.84;100.00
54262;BME280;40174;52.364;6.452;2023-03-21T13:35:02;100895.72;;;11.84;100.00
54262;BME280;40174;52.364;6.452;2023-03-21T13:37:39;100898.63;;;11.81;100.00
54262;BME280;40174;52.364;6.452;2023-03-21T13:40:20;100907.34;;;11.72;100.00
54262;BME280;40174;52.364;6.452;2023-03-21T13:42:52;100904.81;;;11.70;100.00
54262;BME280;40174;52.364;6.452;2023-03-21T13:45:27;100901.94;;;11.73;100.00
54262;BME280;40174;52.364;6.452;2023-03-21T13:47:56;100892.75;;;11.77;100.00
54262;BME280;40174;52.364;6.452;2023-03-21T13:50:39;100893.59;;;11.78;100.00
54262;BME280;40174;52.364;6.452;2023-03-21T13:53:21;100891.78;;;11.78;100.00
54262;BME280;40174;52.364;6.452;2023-03-21T13:55:59;100883.44;;;11.83;100.00
54262;BME280;40174;52.364;6.452;2023-03-21T13:58:36;100882.13;;;11.89;100.00
54262;BME280;40174;52.364;6.452;2023-03-21T14:01:24;100875.22;;;11.97;100.00
54262;BME280;40174;52.364;6.452;2023-03-21T14:03:58;100870.66;;;12.09;100.00
54262;BME280;40174;52.364;6.452;2023-03-21T14:06:30;100860.53;;;12.24;100.00
54262;BME280;40174;52.364;6.452;2023-03-21T14:09:00;100865.75;;;12.35;100.00
54262;BME280;40174;52.364;6.452;2023-03-21T14:11:28;100866.63;;;12.45;100.00
54262;BME280;40174;52.364;6.452;2023-03-21T14:13:59;100859.56;;;12.56;100.00
54262;BME280;40174;52.364;6.452;2023-03-21T14:16:26;100854.56;;;12.72;100.00
54262;BME280;40174;52.364;6.452;2023-03-21T14:18:56;100860.44;;;12.85;100.00
54262;BME280;40174;52.364;6.452;2023-03-21T14:21:26;100856.69;;;12.98;100.00
54262;BME280;40174;52.364;6.452;2023-03-21T14:24:00;100863.66;;;12.89;100.00
54262;BME280;40174;52.364;6.452;2023-03-21T14:26:31;100864.22;;;12.83;100.00
54262;BME280;40174;52.364;6.452;2023-03-21T14:29:00;100860.28;;;12.77;100.00
54262;BME280;40174;52.364;6.452;2023-03-21T14:31:28;100850.97;;;12.93;100.00
54262;BME280;40174;52.364;6.452;2023-03-21T14:33:56;100837.56;;;13.14;100.00
54262;BME280;40174;52.364;6.452;2023-03-21T14:36:25;100828.63;;;13.24;100.00
54262;BME280;40174;52.364;6.452;2023-03-21T14:39:02;100835.50;;;13.37;100.00
54262;BME280;40174;52.364;6.452;2023-03-21T14:41:30;100834.22;;;13.50;100.00
54262;BME280;40174;52.364;6.452;2023-03-21T14:44:18;100838.13;;;13.56;100.00
54262;BME280;40174;52.364;6.452;2023-03-21T14:46:50;100830.31;;;13.45;100.00
54262;BME280;40174;52.364;6.452;2023-03-21T14:49:20;100820.38;;;13.47;100.00
54262;BME280;40174;52.364;6.452;2023-03-21T14:51:49;100810.19;;;13.42;100.00
54262;BME280;40174;52.364;6.452;2023-03-21T14:54:17;100822.50;;;13.34;100.00
54262;BME280;40174;52.364;6.452;2023-03-21T14:56:48;100813.84;;;13.41;100.00
54262;BME280;40174;52.364;6.452;2023-03-21T14:59:20;100812.69;;;13.54;100.00
54262;BME280;40174;52.364;6.452;2023-03-21T15:01:49;100810.19;;;13.52;100.00
54262;BME280;40174;52.364;6.452;2023-03-21T15:04:17;100806.00;;;13.59;100.00
54262;BME280;40174;52.364;6.452;2023-03-21T15:06:51;100805.91;;;13.79;100.00
54262;BME280;40174;52.364;6.452;2023-03-21T15:09:18;100803.91;;;14.00;100.00
54262;BME280;40174;52.364;6.452;2023-03-21T15:11:48;100795.72;;;14.11;100.00
54262;BME280;40174;52.364;6.452;2023-03-21T15:14:18;100793.81;;;14.04;100.00
54262;BME280;40174;52.364;6.452;2023-03-21T15:16:46;100795.38;;;13.97;100.00
54262;BME280;40174;52.364;6.452;2023-03-21T15:19:15;100797.94;;;13.88;100.00
54262;BME280;40174;52.364;6.452;2023-03-21T15:21:45;100806.19;;;13.85;100.00
54262;BME280;40174;52.364;6.452;2023-03-21T15:24:16;100803.94;;;13.81;100.00
54262;BME280;40174;52.364;6.452;2023-03-21T15:26:46;100807.91;;;13.77;100.00
54262;BME280;40174;52.364;6.452;2023-03-21T15:29:13;100814.34;;;13.64;100.00
54262;BME280;40174;52.364;6.452;2023-03-21T15:31:42;100798.03;;;13.49;100.00
54262;BME280;40174;52.364;6.452;2023-03-21T15:34:17;100808.25;;;13.44;100.00
54262;BME280;40174;52.364;6.452;2023-03-21T15:36:45;100805.63;;;13.35;100.00
54262;BME280;40174;52.364;6.452;2023-03-21T15:39:14;100797.91;;;13.31;100.00
54262;BME280;40174;52.364;6.452;2023-03-21T15:41:55;100799.31;;;13.26;100.00
54262;BME280;40174;52.364;6.452;2023-03-21T15:44:22;100801.94;;;13.26;100.00
54262;BME280;40174;52.364;6.452;2023-03-21T15:46:51;100795.94;;;13.24;100.00
54262;BME280;40174;52.364;6.452;2023-03-21T15:49:19;100800.25;;;13.25;100.00
54262;BME280;40174;52.364;6.452;2023-03-21T15:51:51;100795.94;;;13.24;100.00
54262;BME280;40174;52.364;6.452;2023-03-21T15:54:22;100798.03;;;13.10;100.00
54262;BME280;40174;52.364;6.452;2023-03-21T15:56:52;100792.03;;;13.08;100.00
54262;BME280;40174;52.364;6.452;2023-03-21T15:59:21;100791.34;;;13.06;100.00
54262;BME280;40174;52.364;6.452;2023-03-21T16:01:50;100792.34;;;13.05;100.00
54262;BME280;40174;52.364;6.452;2023-03-21T16:04:17;100793.00;;;12.98;100.00
54262;BME280;40174;52.364;6.452;2023-03-21T16:06:51;100796.25;;;12.92;100.00
54262;BME280;40174;52.364;6.452;2023-03-21T16:09:19;100800.16;;;12.87;100.00
54262;BME280;40174;52.364;6.452;2023-03-21T16:11:48;100797.06;;;12.82;100.00
54262;BME280;40174;52.364;6.452;2023-03-21T16:14:16;100791.34;;;12.77;100.00
54262;BME280;40174;52.364;6.452;2023-03-21T16:16:44;100800.00;;;12.79;100.00
54262;BME280;40174;52.364;6.452;2023-03-21T16:19:13;100796.34;;;12.71;100.00
54262;BME280;40174;52.364;6.452;2023-03-21T16:21:40;100793.41;;;12.64;100.00
54262;BME280;40174;52.364;6.452;2023-03-21T16:24:08;100803.31;;;12.62;100.00
54262;BME280;40174;52.364;6.452;2023-03-21T16:26:37;100811.41;;;12.60;100.00
54262;BME280;40174;52.364;6.452;2023-03-21T16:29:04;100809.44;;;12.53;100.00
54262;BME280;40174;52.364;6.452;2023-03-21T16:31:33;100798.56;;;12.56;100.00
54262;BME280;40174;52.364;6.452;2023-03-21T16:34:00;100816.56;;;12.52;100.00
54262;BME280;40174;52.364;6.452;2023-03-21T16:36:31;100824.91;;;12.47;100.00
54262;BME280;40174;52.364;6.452;2023-03-21T16:39:00;100828.69;;;12.45;100.00
54262;BME280;40174;52.364;6.452;2023-03-21T16:41:27;100816.66;;;12.41;100.00
54262;BME280;40174;52.364;6.452;2023-03-21T16:43:53;100817.91;;;12.37;100.00
54262;BME280;40174;52.364;6.452;2023-03-21T16:46:22;100815.66;;;12.32;100.00
54262;BME280;40174;52.364;6.452;2023-03-21T16:48:50;100803.53;;;12.30;100.00
54262;BME280;40174;52.364;6.452;2023-03-21T16:51:18;100802.69;;;12.29;100.00
54262;BME280;40174;52.364;6.452;2023-03-21T16:53:48;100803.53;;;12.30;100.00